San Antonio, Texas
Traffic Map
Current Weather Conditions
San Antonio, Texas
Broken Clouds
Broken Clouds
26°
Feels Like: 27°
Wind Chill: 26° Ceiling: 3200
Heat Index: 27° Visibility: 10mi
Dew Point: 18° Wind: 18mph
Humidity: 62% Direction: 150° (SSE)
Pressure: 29.78in Gusts: 0mph
Raw Report DataKSAT 192051Z 15016KT 10SM BKN032 BKN150 BKN250 26/18 A2978 RMK AO2 SLP068 T02610183 56025 $
Traffic Incident Summary
Active as of:
Severity:
Category:
InformationThere was an issue retrieving the traffic information for this location. Please try a different location or try again shortly.
Advertisements
Track Severe Weather on mobile